createdAt,value
2023-05-10T00:00:29.905Z,81.44
2023-05-10T00:03:33.125Z,81.60
2023-05-10T00:08:53.145Z,81.68
2023-05-10T00:11:43.751Z,81.46
2023-05-10T00:14:48.835Z,81.45
2023-05-10T00:17:49.725Z,81.72
2023-05-10T00:23:14.780Z,82.02
2023-05-10T00:26:03.807Z,81.89
2023-05-10T00:29:09.962Z,81.86
2023-05-10T00:32:11.458Z,81.98
2023-05-10T00:35:16.420Z,82.13
2023-05-10T00:38:22.865Z,81.93
2023-05-10T00:41:24.643Z,82.09
2023-05-10T00:44:29.665Z,82.27
2023-05-10T00:47:34.655Z,82.32
2023-05-10T00:50:37.056Z,81.97
2023-05-10T00:53:44.329Z,82.15
2023-05-10T00:56:49.826Z,82.07
2023-05-10T00:59:51.577Z,82.25
2023-05-10T01:02:57.152Z,82.30
2023-05-10T01:05:59.479Z,82.02
2023-05-10T01:09:06.559Z,82.39
2023-05-10T01:12:09.037Z,82.30
2023-05-10T01:15:14.983Z,82.29
2023-05-10T01:18:18.809Z,82.35
2023-05-10T01:21:23.003Z,82.67
2023-05-10T01:24:28.511Z,82.42
2023-05-10T01:27:43.064Z,82.29
2023-05-10T01:31:35.792Z,82.69
2023-05-10T01:34:38.419Z,82.38
2023-05-10T01:37:43.840Z,82.41
2023-05-10T01:40:50.290Z,82.37
2023-05-10T01:43:58.204Z,82.17
2023-05-10T01:46:58.298Z,82.26
2023-05-10T01:50:03.199Z,82.23
2023-05-10T01:53:09.195Z,82.39
2023-05-10T01:56:11.912Z,82.50
2023-05-10T01:59:14.093Z,82.68
2023-05-10T02:02:19.766Z,82.65
2023-05-10T02:05:26.697Z,82.67
2023-05-10T02:08:29.503Z,82.65
2023-05-10T02:11:32.903Z,82.58
2023-05-10T02:14:39.631Z,82.86
2023-05-10T02:17:42.518Z,82.97
2023-05-10T02:20:48.326Z,83.29
2023-05-10T02:23:52.445Z,83.26
2023-05-10T02:26:56.670Z,83.46
2023-05-10T02:29:58.993Z,83.86
2023-05-10T02:33:07.007Z,83.97
2023-05-10T02:36:09.804Z,84.06
2023-05-10T02:39:14.703Z,84.00
2023-05-10T02:42:18.256Z,83.69
2023-05-10T02:45:19.260Z,83.90
2023-05-10T02:48:23.857Z,83.65
2023-05-10T02:51:30.326Z,83.42
2023-05-10T02:54:29.569Z,83.43
2023-05-10T02:57:36.947Z,83.33
2023-05-10T03:00:42.350Z,83.40
2023-05-10T03:03:47.845Z,82.95
2023-05-10T03:06:52.389Z,82.92
2023-05-10T03:09:54.787Z,83.08
2023-05-10T03:13:23.153Z,82.85
2023-05-10T03:20:08.196Z,83.09
2023-05-10T03:27:20.228Z,83.25
2023-05-10T03:30:23.546Z,83.41
2023-05-10T03:33:28.855Z,83.19
2023-05-10T03:36:30.083Z,83.48
2023-05-10T03:39:36.850Z,83.40
2023-05-10T03:42:41.619Z,83.41
2023-05-10T03:45:46.785Z,83.48
2023-05-10T03:48:48.745Z,83.66
2023-05-10T03:51:53.665Z,83.33
2023-05-10T03:54:58.656Z,83.60
2023-05-10T03:58:05.205Z,83.54
2023-05-10T04:01:07.378Z,83.40
2023-05-10T04:04:12.749Z,83.83
2023-05-10T04:07:15.300Z,83.79
2023-05-10T04:10:20.314Z,83.77
2023-05-10T04:13:24.370Z,83.76
2023-05-10T04:16:29.749Z,83.98
2023-05-10T04:19:30.274Z,84.44
2023-05-10T04:22:35.538Z,85.04
2023-05-10T04:25:42.114Z,85.42
2023-05-10T04:28:48.678Z,85.10
2023-05-10T04:31:51.950Z,85.73
2023-05-10T04:34:52.400Z,86.00
2023-05-10T04:37:57.093Z,86.09
2023-05-10T04:41:01.960Z,86.13
2023-05-10T04:44:08.314Z,85.32
2023-05-10T04:47:12.637Z,84.82
2023-05-10T04:50:15.269Z,84.88
2023-05-10T04:53:20.714Z,84.31
2023-05-10T04:56:26.004Z,84.22
2023-05-10T04:59:27.963Z,84.17
2023-05-10T05:02:34.421Z,83.97
2023-05-10T05:05:36.370Z,83.62
2023-05-10T05:08:41.410Z,83.67
2023-05-10T05:11:46.614Z,83.62
2023-05-10T05:14:51.769Z,83.21
2023-05-10T05:17:19.946Z,83.55
2023-05-10T05:20:09.533Z,83.35
2023-05-10T05:23:01.755Z,83.26
2023-05-10T05:25:29.950Z,83.18
2023-05-10T05:28:09.978Z,82.66
2023-05-10T05:30:38.170Z,83.19
2023-05-10T05:33:16.481Z,83.04
2023-05-10T05:38:37.115Z,83.18
2023-05-10T05:41:28.990Z,83.13
2023-05-10T05:43:57.236Z,83.33
2023-05-10T05:46:34.496Z,83.10
2023-05-10T05:49:02.699Z,83.27
2023-05-10T05:51:44.310Z,83.18
2023-05-10T05:54:12.501Z,83.34
2023-05-10T05:56:49.638Z,82.76
2023-05-10T05:59:20.862Z,83.10
2023-05-10T06:02:08.000Z,83.31
2023-05-10T06:05:01.400Z,82.82
2023-05-10T06:08:02.093Z,83.59
2023-05-10T06:11:07.110Z,83.41
2023-05-10T06:13:36.396Z,83.56
2023-05-10T06:16:23.571Z,83.90
2023-05-10T06:19:22.417Z,83.62
2023-05-10T06:22:24.916Z,83.70
2023-05-10T06:25:28.318Z,83.66
2023-05-10T06:28:34.490Z,83.02
2023-05-10T06:31:39.223Z,82.94
2023-05-10T06:34:45.731Z,82.53
2023-05-10T06:37:44.705Z,82.88
2023-05-10T06:40:52.283Z,82.91
2023-05-10T06:43:56.694Z,83.31
2023-05-10T06:46:58.826Z,83.29
2023-05-10T06:50:04.303Z,83.77
2023-05-10T06:53:09.392Z,83.72
2023-05-10T06:56:15.838Z,83.69
2023-05-10T06:59:18.339Z,83.29
2023-05-10T07:02:21.058Z,82.61
2023-05-10T07:05:26.159Z,82.23
2023-05-10T07:08:23.385Z,81.94
2023-05-10T07:11:34.594Z,81.33
2023-05-10T07:14:41.130Z,80.92
2023-05-10T07:17:45.524Z,80.74
2023-05-10T07:20:47.840Z,80.34
2023-05-10T07:23:52.799Z,80.53
2023-05-10T07:26:57.908Z,80.79
2023-05-10T07:30:01.730Z,80.99
2023-05-10T07:33:07.182Z,80.25
2023-05-10T07:36:09.206Z,79.66
2023-05-10T07:43:19.629Z,79.04
2023-05-10T07:46:55.630Z,77.68
2023-05-10T07:49:38.280Z,76.09
2023-05-10T07:52:30.965Z,73.93
2023-05-10T07:58:41.891Z,69.39
2023-05-10T08:01:57.526Z,65.78
2023-05-10T08:04:50.439Z,64.86
2023-05-10T08:07:51.703Z,62.51
2023-05-10T08:10:56.983Z,59.96
2023-05-10T08:14:01.744Z,61.15
2023-05-10T08:17:08.459Z,61.07
2023-05-10T08:20:11.394Z,61.03
2023-05-10T08:23:17.093Z,62.17
2023-05-10T08:26:18.934Z,62.25
2023-05-10T08:29:24.546Z,61.62
2023-05-10T08:32:26.994Z,62.60
2023-05-10T08:35:34.337Z,61.35
2023-05-10T08:38:14.860Z,60.28
2023-05-10T08:40:44.776Z,60.57
2023-05-10T08:43:47.389Z,59.14
2023-05-10T08:49:52.988Z,61.45
2023-05-10T08:52:55.045Z,63.19
2023-05-10T08:55:46.363Z,63.01
2023-05-10T08:59:06.269Z,61.70
2023-05-10T09:02:09.788Z,63.30
2023-05-10T09:05:17.143Z,62.34
2023-05-10T09:08:20.965Z,62.48
2023-05-10T09:11:23.661Z,63.20
2023-05-10T09:14:19.963Z,63.62
2023-05-10T09:17:31.691Z,63.17
2023-05-10T09:20:36.860Z,63.31
2023-05-10T09:23:48.559Z,62.98
2023-05-10T09:26:49.671Z,62.11
2023-05-10T09:29:48.616Z,61.40
2023-05-10T09:32:53.785Z,60.69
2023-05-10T09:40:03.956Z,59.50
2023-05-10T09:43:06.953Z,59.49
2023-05-10T09:46:11.916Z,61.16
2023-05-10T09:49:17.037Z,59.89
2023-05-10T09:52:22.011Z,57.40
2023-05-10T09:55:12.417Z,57.00
2023-05-10T09:58:27.110Z,57.74
2023-05-10T10:01:32.889Z,57.51
2023-05-10T10:04:37.268Z,58.20
2023-05-10T10:07:41.697Z,59.42
2023-05-10T10:10:50.552Z,58.78
2023-05-10T10:13:52.262Z,57.37
2023-05-10T10:17:06.622Z,56.03
2023-05-10T10:20:00.597Z,55.58
2023-05-10T10:23:02.732Z,54.52
2023-05-10T10:26:07.096Z,53.41
2023-05-10T10:29:12.512Z,54.52
2023-05-10T10:32:14.995Z,56.34
2023-05-10T10:35:19.770Z,57.17
2023-05-10T10:41:31.381Z,55.87
2023-05-10T10:44:41.562Z,56.58
2023-05-10T10:47:38.431Z,55.61
2023-05-10T10:50:43.090Z,56.30
2023-05-10T10:53:49.922Z,57.49
2023-05-10T11:10:31.397Z,57.73
2023-05-10T11:13:14.092Z,57.75
2023-05-10T11:16:09.431Z,57.16
2023-05-10T11:19:29.377Z,57.41
2023-05-10T11:22:29.541Z,56.21
2023-05-10T11:29:03.202Z,55.02
2023-05-10T11:35:23.925Z,52.74
2023-05-10T11:42:13.605Z,55.14
2023-05-10T11:46:00.988Z,54.92
2023-05-10T11:48:59.514Z,53.14
2023-05-10T11:51:30.815Z,54.01
2023-05-10T11:58:17.180Z,52.63
2023-05-10T12:03:47.101Z,52.61
2023-05-10T12:06:33.078Z,53.09
2023-05-10T12:09:01.632Z,53.34
2023-05-10T12:12:05.048Z,53.59
2023-05-10T12:14:40.902Z,54.03
2023-05-10T12:17:14.220Z,52.83
2023-05-10T12:19:48.286Z,53.21
2023-05-10T12:22:19.519Z,53.58
2023-05-10T12:24:56.960Z,54.28
2023-05-10T12:27:58.016Z,54.34
2023-05-10T12:31:04.558Z,54.57
2023-05-10T12:33:55.951Z,53.86
2023-05-10T12:36:27.055Z,53.50
2023-05-10T12:39:16.894Z,54.69
2023-05-10T12:42:18.997Z,53.82
2023-05-10T12:45:23.081Z,55.24
2023-05-10T12:48:29.914Z,56.58
2023-05-10T12:51:34.639Z,56.12
2023-05-10T12:54:30.238Z,55.52
2023-05-10T12:57:34.775Z,56.78
2023-05-10T13:00:18.623Z,56.27
2023-05-10T13:03:09.061Z,55.80
2023-05-10T13:05:52.518Z,55.98
2023-05-10T13:08:58.653Z,55.12
2023-05-10T13:12:00.673Z,57.48
2023-05-10T13:14:29.643Z,57.27
2023-05-10T13:17:10.003Z,56.50
2023-05-10T13:20:16.768Z,57.03
2023-05-10T13:23:17.106Z,56.52
2023-05-10T13:26:22.697Z,56.72
2023-05-10T13:29:22.384Z,57.70
2023-05-10T13:32:20.676Z,56.46
2023-05-10T13:34:57.495Z,57.24
2023-05-10T13:37:42.377Z,57.32
2023-05-10T13:40:34.622Z,56.00
2023-05-10T13:43:10.523Z,55.65
2023-05-10T13:45:50.726Z,55.15
2023-05-10T13:48:52.393Z,54.95
2023-05-10T13:54:13.508Z,55.01
2023-05-10T13:57:07.640Z,54.74
2023-05-10T14:00:23.701Z,55.59
2023-05-10T14:03:19.530Z,55.37
2023-05-10T14:06:17.630Z,54.43
2023-05-10T14:09:26.430Z,54.29
2023-05-10T14:12:35.990Z,54.95
2023-05-10T14:15:55.314Z,54.11
2023-05-10T14:19:05.099Z,53.32
2023-05-10T14:21:46.568Z,55.09
2023-05-10T14:24:55.328Z,55.53
2023-05-10T14:28:28.960Z,56.03
2023-05-10T14:31:04.355Z,55.87
2023-05-10T14:33:32.545Z,55.53
2023-05-10T14:36:01.063Z,55.33
2023-05-10T14:38:32.659Z,55.33
2023-05-10T14:41:06.859Z,56.52
2023-05-10T14:43:35.336Z,57.02
2023-05-10T14:46:13.745Z,58.30
2023-05-10T14:48:42.000Z,58.32
2023-05-10T14:51:23.013Z,58.12
2023-05-10T14:53:51.345Z,57.98
2023-05-10T14:56:19.722Z,58.02
2023-05-10T14:58:52.306Z,57.71
2023-05-10T15:01:31.793Z,56.54
2023-05-10T15:04:00.635Z,56.67
2023-05-10T15:06:42.646Z,56.27
2023-05-10T15:09:10.960Z,56.42
2023-05-10T15:11:52.914Z,56.62
2023-05-10T15:14:21.193Z,56.40
2023-05-10T15:16:59.828Z,54.56
2023-05-10T15:19:28.463Z,53.51
2023-05-10T15:22:06.764Z,52.86
2023-05-10T15:24:37.654Z,53.73
2023-05-10T15:27:11.920Z,52.55
2023-05-10T15:29:40.422Z,52.55
2023-05-10T15:32:27.051Z,52.31
2023-05-10T15:34:55.447Z,53.28
2023-05-10T15:37:26.990Z,54.07
2023-05-10T15:39:56.324Z,54.11
2023-05-10T15:42:34.531Z,54.76
2023-05-10T15:45:02.814Z,55.15
2023-05-10T15:47:41.767Z,55.97
2023-05-10T15:50:11.535Z,57.13
2023-05-10T15:52:39.872Z,56.80
2023-05-10T15:55:13.308Z,56.92
2023-05-10T15:57:41.849Z,57.29
2023-05-10T16:00:11.687Z,57.43
2023-05-10T16:02:44.356Z,57.19
2023-05-10T16:05:14.033Z,57.41
2023-05-10T16:07:45.525Z,57.87
2023-05-10T16:10:13.913Z,57.60
2023-05-10T16:12:44.962Z,58.03
2023-05-10T16:15:13.619Z,57.98
2023-05-10T16:17:43.469Z,58.69
2023-05-10T16:20:12.386Z,58.29
2023-05-10T16:22:43.298Z,58.29
2023-05-10T16:25:13.699Z,58.61
2023-05-10T16:27:43.186Z,58.81
2023-05-10T16:30:11.830Z,59.19
2023-05-10T16:32:41.097Z,58.60
2023-05-10T16:35:11.324Z,59.30
2023-05-10T16:37:39.816Z,59.97
2023-05-10T16:40:09.472Z,60.29
2023-05-10T16:42:37.919Z,60.43
2023-05-10T16:45:09.301Z,60.31
2023-05-10T16:47:38.229Z,60.89
2023-05-10T16:50:08.422Z,61.26
2023-05-10T16:52:38.731Z,61.81
2023-05-10T16:55:07.865Z,62.59
2023-05-10T16:57:36.052Z,62.43
2023-05-10T17:00:05.212Z,62.38
2023-05-10T17:02:33.523Z,62.28
2023-05-10T17:05:01.864Z,61.77
2023-05-10T17:07:30.944Z,61.26
2023-05-10T17:10:00.728Z,61.60
2023-05-10T17:12:29.215Z,61.60
2023-05-10T17:14:57.526Z,61.75
2023-05-10T17:17:44.118Z,61.60
2023-05-10T17:20:13.966Z,61.89
2023-05-10T17:22:43.162Z,62.33
2023-05-10T17:25:12.974Z,62.58
2023-05-10T17:27:41.361Z,62.96
2023-05-10T17:30:10.627Z,63.37
2023-05-10T17:32:38.835Z,63.67
2023-05-10T17:35:08.377Z,63.85
2023-05-10T17:37:36.640Z,63.89
2023-05-10T17:40:07.460Z,64.24
2023-05-10T17:42:37.163Z,64.35
2023-05-10T17:45:05.735Z,64.60
2023-05-10T17:47:34.156Z,64.70
2023-05-10T17:50:02.454Z,65.41
2023-05-10T17:52:33.359Z,66.21
2023-05-10T17:55:02.564Z,66.36
2023-05-10T17:57:30.978Z,66.53
2023-05-10T18:00:09.085Z,66.30
2023-05-10T18:02:38.273Z,66.34
2023-05-10T18:05:07.347Z,66.47
2023-05-10T18:07:36.151Z,66.24
2023-05-10T18:10:05.185Z,65.71
2023-05-10T18:12:33.981Z,65.52
2023-05-10T18:15:10.714Z,65.04
2023-05-10T18:17:39.011Z,65.54
2023-05-10T18:20:08.576Z,64.99
2023-05-10T18:22:37.192Z,64.81
2023-05-10T18:25:06.063Z,65.01
2023-05-10T18:27:36.392Z,64.88
2023-05-10T18:30:07.037Z,65.33
2023-05-10T18:32:38.474Z,65.48
2023-05-10T18:35:07.717Z,65.90
2023-05-10T18:37:39.835Z,65.88
2023-05-10T18:40:12.635Z,65.87
2023-05-10T18:42:47.784Z,66.18
2023-05-10T18:45:16.628Z,66.03
2023-05-10T18:47:55.105Z,66.28
2023-05-10T18:50:24.719Z,66.15
2023-05-10T18:53:02.267Z,66.24
2023-05-10T18:55:30.815Z,66.71
2023-05-10T18:58:08.564Z,66.67
2023-05-10T19:00:36.789Z,67.20
2023-05-10T19:03:15.121Z,67.13
2023-05-10T19:05:43.442Z,67.58
2023-05-10T19:08:24.194Z,67.63
2023-05-10T19:11:26.311Z,67.74
2023-05-10T19:14:31.601Z,67.93
2023-05-10T19:17:33.804Z,68.68
2023-05-10T19:20:05.031Z,68.77
2023-05-10T19:22:47.283Z,68.94
2023-05-10T19:25:21.750Z,68.99
2023-05-10T19:27:51.939Z,68.81
2023-05-10T19:30:20.325Z,69.00
2023-05-10T19:32:48.553Z,69.12
2023-05-10T19:35:18.697Z,69.34
2023-05-10T19:37:47.433Z,69.40
2023-05-10T19:40:17.484Z,69.62
2023-05-10T19:42:45.780Z,69.80
2023-05-10T19:45:15.783Z,69.80
2023-05-10T19:47:44.596Z,69.69
2023-05-10T19:50:13.972Z,69.78
2023-05-10T19:52:43.563Z,70.07
2023-05-10T19:55:12.517Z,70.10
2023-05-10T19:57:40.655Z,70.31
2023-05-10T20:00:13.180Z,70.38
2023-05-10T20:02:41.702Z,70.46
2023-05-10T20:05:10.567Z,70.46
2023-05-10T20:07:38.618Z,70.65
2023-05-10T20:10:09.792Z,70.99
2023-05-10T20:12:38.022Z,71.68
2023-05-10T20:15:08.633Z,72.21
2023-05-10T20:17:37.550Z,72.26
2023-05-10T20:20:06.577Z,72.75
2023-05-10T20:22:34.810Z,72.48
2023-05-10T20:25:02.990Z,73.48
2023-05-10T20:27:32.507Z,73.50
2023-05-10T20:30:02.020Z,73.96
2023-05-10T20:32:30.562Z,73.94
2023-05-10T20:34:58.782Z,74.29
2023-05-10T20:37:28.292Z,74.66
2023-05-10T20:39:56.761Z,74.87
2023-05-10T20:42:25.280Z,74.74
2023-05-10T20:44:54.837Z,74.44
2023-05-10T20:47:24.103Z,75.52
2023-05-10T20:49:52.441Z,76.29
2023-05-10T20:52:21.373Z,75.52
2023-05-10T20:54:50.575Z,74.60
2023-05-10T20:57:18.993Z,73.68
2023-05-10T20:59:47.170Z,72.91
2023-05-10T21:02:19.584Z,72.26
2023-05-10T21:04:48.712Z,72.21
2023-05-10T21:07:18.397Z,71.87
2023-05-10T21:09:46.652Z,71.35
2023-05-10T21:12:14.947Z,71.65
2023-05-10T21:14:44.381Z,71.25
2023-05-10T21:17:12.648Z,70.97
2023-05-10T21:19:42.200Z,71.37
2023-05-10T21:22:11.218Z,71.45
2023-05-10T21:24:39.477Z,71.15
2023-05-10T21:27:09.136Z,71.10
2023-05-10T21:29:37.374Z,71.28
2023-05-10T21:32:05.858Z,71.17
2023-05-10T21:34:34.144Z,71.28
2023-05-10T21:37:03.872Z,71.57
2023-05-10T21:39:32.145Z,71.64
2023-05-10T21:42:00.794Z,71.91
2023-05-10T21:44:28.975Z,72.53
2023-05-10T21:46:58.584Z,72.54
2023-05-10T21:49:27.133Z,72.53
2023-05-10T21:51:55.434Z,72.70
2023-05-10T21:54:26.439Z,72.97
2023-05-10T21:56:54.744Z,72.91
2023-05-10T21:59:23.369Z,72.95
2023-05-10T22:01:51.704Z,73.43
2023-05-10T22:04:19.911Z,73.23
2023-05-10T22:06:49.157Z,73.16
2023-05-10T22:09:18.034Z,73.16
2023-05-10T22:11:48.792Z,73.04
2023-05-10T22:14:17.052Z,72.84
2023-05-10T22:16:45.944Z,72.52
2023-05-10T22:19:14.242Z,72.23
2023-05-10T22:21:42.668Z,72.42
2023-05-10T22:24:10.940Z,72.24
2023-05-10T22:26:39.310Z,71.79
2023-05-10T22:29:08.899Z,72.10
2023-05-10T22:31:37.534Z,72.07
2023-05-10T22:34:05.937Z,72.28
2023-05-10T22:36:34.196Z,71.89
2023-05-10T22:39:02.623Z,71.60
2023-05-10T22:41:32.701Z,71.80
2023-05-10T22:44:00.957Z,71.72
2023-05-10T22:46:30.716Z,71.41
2023-05-10T22:49:00.046Z,71.53
2023-05-10T22:51:28.704Z,71.83
2023-05-10T22:53:56.890Z,71.55
2023-05-10T22:56:25.446Z,71.57
2023-05-10T22:58:53.682Z,71.76
2023-05-10T23:01:22.056Z,71.88
2023-05-10T23:03:51.749Z,71.83
2023-05-10T23:06:20.030Z,71.76
2023-05-10T23:08:48.229Z,71.87
2023-05-10T23:11:17.796Z,71.82
2023-05-10T23:13:45.981Z,72.04
2023-05-10T23:16:14.322Z,72.30
2023-05-10T23:18:42.752Z,71.89
2023-05-10T23:21:12.457Z,72.02
2023-05-10T23:23:40.800Z,72.31
2023-05-10T23:26:09.495Z,72.35
2023-05-10T23:28:38.088Z,72.13
2023-05-10T23:31:06.654Z,72.16
2023-05-10T23:33:35.391Z,72.36
2023-05-10T23:36:03.595Z,72.40
2023-05-10T23:38:33.321Z,72.43
2023-05-10T23:41:01.556Z,72.25
2023-05-10T23:43:29.785Z,72.61
2023-05-10T23:45:59.473Z,72.70
2023-05-10T23:48:28.084Z,72.82
2023-05-10T23:50:56.382Z,72.75
2023-05-10T23:53:24.758Z,72.90
2023-05-10T23:55:55.492Z,72.91
2023-05-10T23:58:23.722Z,73.16
